sensor_id;sensor_type;location;lat;lon;timestamp;P1;durP1;ratioP1;P2;durP2;ratioP2
23394;SDS011;11870;53.084;18.206;2023-02-24T00:01:45;76.55;;;31.17;;
23394;SDS011;11870;53.084;18.206;2023-02-24T00:04:17;71.88;;;31.83;;
23394;SDS011;11870;53.084;18.206;2023-02-24T00:06:45;77.40;;;32.28;;
23394;SDS011;11870;53.084;18.206;2023-02-24T00:09:13;73.18;;;32.17;;
23394;SDS011;11870;53.084;18.206;2023-02-24T00:11:41;77.13;;;31.75;;
23394;SDS011;11870;53.084;18.206;2023-02-24T00:14:30;70.60;;;30.83;;
23394;SDS011;11870;53.084;18.206;2023-02-24T00:16:58;68.60;;;30.52;;
23394;SDS011;11870;53.084;18.206;2023-02-24T00:19:26;67.20;;;29.55;;
23394;SDS011;11870;53.084;18.206;2023-02-24T00:21:53;65.07;;;29.90;;
23394;SDS011;11870;53.084;18.206;2023-02-24T00:24:20;73.00;;;31.13;;
23394;SDS011;11870;53.084;18.206;2023-02-24T00:26:50;68.90;;;31.00;;
23394;SDS011;11870;53.084;18.206;2023-02-24T00:29:19;67.72;;;29.60;;
23394;SDS011;11870;53.084;18.206;2023-02-24T00:31:48;70.18;;;30.17;;
23394;SDS011;11870;53.084;18.206;2023-02-24T00:34:21;69.78;;;29.55;;
23394;SDS011;11870;53.084;18.206;2023-02-24T00:36:47;65.13;;;29.85;;
23394;SDS011;11870;53.084;18.206;2023-02-24T00:39:13;65.80;;;28.55;;
23394;SDS011;11870;53.084;18.206;2023-02-24T00:41:40;66.03;;;29.58;;
23394;SDS011;11870;53.084;18.206;2023-02-24T00:44:08;67.95;;;29.73;;
23394;SDS011;11870;53.084;18.206;2023-02-24T00:46:38;65.10;;;28.85;;
23394;SDS011;11870;53.084;18.206;2023-02-24T00:49:06;62.95;;;28.40;;
23394;SDS011;11870;53.084;18.206;2023-02-24T00:51:40;71.43;;;29.60;;
23394;SDS011;11870;53.084;18.206;2023-02-24T00:54:08;66.63;;;27.70;;
23394;SDS011;11870;53.084;18.206;2023-02-24T00:56:39;63.30;;;27.05;;
23394;SDS011;11870;53.084;18.206;2023-02-24T00:59:11;65.10;;;27.48;;
23394;SDS011;11870;53.084;18.206;2023-02-24T01:01:38;64.22;;;28.02;;
23394;SDS011;11870;53.084;18.206;2023-02-24T01:04:05;64.72;;;28.98;;
23394;SDS011;11870;53.084;18.206;2023-02-24T01:06:45;59.95;;;26.77;;
23394;SDS011;11870;53.084;18.206;2023-02-24T01:09:16;59.13;;;26.83;;
23394;SDS011;11870;53.084;18.206;2023-02-24T01:11:44;60.13;;;27.27;;
23394;SDS011;11870;53.084;18.206;2023-02-24T01:14:48;64.65;;;27.73;;
23394;SDS011;11870;53.084;18.206;2023-02-24T01:17:15;63.47;;;26.95;;
23394;SDS011;11870;53.084;18.206;2023-02-24T01:19:44;55.95;;;26.63;;
23394;SDS011;11870;53.084;18.206;2023-02-24T01:22:12;53.10;;;25.15;;
23394;SDS011;11870;53.084;18.206;2023-02-24T01:24:40;56.17;;;24.77;;
23394;SDS011;11870;53.084;18.206;2023-02-24T01:27:09;56.38;;;24.42;;
23394;SDS011;11870;53.084;18.206;2023-02-24T01:29:36;54.30;;;22.98;;
23394;SDS011;11870;53.084;18.206;2023-02-24T01:32:07;59.75;;;25.23;;
23394;SDS011;11870;53.084;18.206;2023-02-24T01:34:41;61.22;;;25.90;;
23394;SDS011;11870;53.084;18.206;2023-02-24T01:37:08;53.47;;;24.55;;
23394;SDS011;11870;53.084;18.206;2023-02-24T01:39:34;55.30;;;23.73;;
23394;SDS011;11870;53.084;18.206;2023-02-24T01:42:02;56.95;;;24.40;;
23394;SDS011;11870;53.084;18.206;2023-02-24T01:46:57;54.83;;;24.70;;
23394;SDS011;11870;53.084;18.206;2023-02-24T01:49:33;50.22;;;22.38;;
23394;SDS011;11870;53.084;18.206;2023-02-24T01:57:35;53.00;;;23.17;;
23394;SDS011;11870;53.084;18.206;2023-02-24T02:00:07;52.55;;;21.20;;
23394;SDS011;11870;53.084;18.206;2023-02-24T02:02:55;53.53;;;22.02;;
23394;SDS011;11870;53.084;18.206;2023-02-24T02:05:22;47.05;;;20.50;;
23394;SDS011;11870;53.084;18.206;2023-02-24T02:07:49;48.63;;;21.08;;
23394;SDS011;11870;53.084;18.206;2023-02-24T02:10:15;53.40;;;20.58;;
23394;SDS011;11870;53.084;18.206;2023-02-24T02:12:42;44.85;;;19.95;;
23394;SDS011;11870;53.084;18.206;2023-02-24T02:15:11;41.33;;;19.27;;
23394;SDS011;11870;53.084;18.206;2023-02-24T02:17:41;42.30;;;18.83;;
23394;SDS011;11870;53.084;18.206;2023-02-24T02:23:41;47.85;;;18.95;;
23394;SDS011;11870;53.084;18.206;2023-02-24T02:37:05;44.50;;;18.30;;
23394;SDS011;11870;53.084;18.206;2023-02-24T02:42:18;46.45;;;19.15;;
23394;SDS011;11870;53.084;18.206;2023-02-24T02:47:34;45.85;;;18.73;;
23394;SDS011;11870;53.084;18.206;2023-02-24T02:50:11;43.08;;;19.05;;
23394;SDS011;11870;53.084;18.206;2023-02-24T02:52:47;49.22;;;19.48;;
23394;SDS011;11870;53.084;18.206;2023-02-24T02:55:20;50.60;;;18.60;;
23394;SDS011;11870;53.084;18.206;2023-02-24T02:58:01;40.63;;;17.00;;
23394;SDS011;11870;53.084;18.206;2023-02-24T03:00:35;47.58;;;18.67;;
23394;SDS011;11870;53.084;18.206;2023-02-24T03:03:07;44.70;;;18.75;;
23394;SDS011;11870;53.084;18.206;2023-02-24T03:05:42;44.63;;;17.98;;
23394;SDS011;11870;53.084;18.206;2023-02-24T03:08:22;40.17;;;17.45;;
23394;SDS011;11870;53.084;18.206;2023-02-24T03:10:52;41.03;;;16.65;;
23394;SDS011;11870;53.084;18.206;2023-02-24T03:13:23;45.28;;;17.55;;
23394;SDS011;11870;53.084;18.206;2023-02-24T03:15:55;46.67;;;17.52;;
23394;SDS011;11870;53.084;18.206;2023-02-24T03:18:30;44.00;;;16.63;;
23394;SDS011;11870;53.084;18.206;2023-02-24T03:21:01;47.08;;;18.25;;
23394;SDS011;11870;53.084;18.206;2023-02-24T03:23:37;46.63;;;17.90;;
23394;SDS011;11870;53.084;18.206;2023-02-24T03:26:10;45.70;;;17.45;;
23394;SDS011;11870;53.084;18.206;2023-02-24T03:31:45;49.10;;;18.40;;
23394;SDS011;11870;53.084;18.206;2023-02-24T03:34:30;45.53;;;18.67;;
23394;SDS011;11870;53.084;18.206;2023-02-24T03:37:07;43.13;;;17.02;;
23394;SDS011;11870;53.084;18.206;2023-02-24T03:39:34;44.67;;;16.48;;
23394;SDS011;11870;53.084;18.206;2023-02-24T03:42:05;41.20;;;17.85;;
23394;SDS011;11870;53.084;18.206;2023-02-24T03:44:41;45.20;;;17.45;;
23394;SDS011;11870;53.084;18.206;2023-02-24T03:47:08;47.13;;;17.98;;
23394;SDS011;11870;53.084;18.206;2023-02-24T03:49:34;45.28;;;17.33;;
23394;SDS011;11870;53.084;18.206;2023-02-24T03:54:52;40.58;;;16.80;;
23394;SDS011;11870;53.084;18.206;2023-02-24T04:05:39;40.33;;;16.50;;
23394;SDS011;11870;53.084;18.206;2023-02-24T04:08:15;40.10;;;16.90;;
23394;SDS011;11870;53.084;18.206;2023-02-24T04:10:49;44.70;;;17.30;;
23394;SDS011;11870;53.084;18.206;2023-02-24T04:16:15;43.45;;;15.48;;
23394;SDS011;11870;53.084;18.206;2023-02-24T04:18:52;47.40;;;17.08;;
23394;SDS011;11870;53.084;18.206;2023-02-24T04:21:23;44.20;;;15.65;;
23394;SDS011;11870;53.084;18.206;2023-02-24T04:23:52;42.67;;;15.90;;
23394;SDS011;11870;53.084;18.206;2023-02-24T04:26:20;39.28;;;15.30;;
23394;SDS011;11870;53.084;18.206;2023-02-24T04:28:49;45.50;;;16.58;;
23394;SDS011;11870;53.084;18.206;2023-02-24T04:31:16;38.75;;;15.32;;
23394;SDS011;11870;53.084;18.206;2023-02-24T04:33:44;34.45;;;14.73;;
23394;SDS011;11870;53.084;18.206;2023-02-24T04:36:18;38.83;;;15.40;;
23394;SDS011;11870;53.084;18.206;2023-02-24T04:38:45;42.42;;;15.43;;
23394;SDS011;11870;53.084;18.206;2023-02-24T04:41:13;43.75;;;15.65;;
23394;SDS011;11870;53.084;18.206;2023-02-24T04:43:54;41.85;;;15.20;;
23394;SDS011;11870;53.084;18.206;2023-02-24T04:46:20;39.15;;;15.38;;
23394;SDS011;11870;53.084;18.206;2023-02-24T04:48:47;37.35;;;14.80;;
23394;SDS011;11870;53.084;18.206;2023-02-24T04:51:15;38.40;;;14.95;;
23394;SDS011;11870;53.084;18.206;2023-02-24T04:53:44;37.65;;;15.27;;
23394;SDS011;11870;53.084;18.206;2023-02-24T04:56:11;37.83;;;14.18;;
23394;SDS011;11870;53.084;18.206;2023-02-24T04:58:37;38.55;;;15.02;;
23394;SDS011;11870;53.084;18.206;2023-02-24T05:01:05;39.35;;;14.80;;
23394;SDS011;11870;53.084;18.206;2023-02-24T05:03:35;40.28;;;15.10;;
23394;SDS011;11870;53.084;18.206;2023-02-24T05:06:01;38.88;;;13.65;;
23394;SDS011;11870;53.084;18.206;2023-02-24T05:08:28;37.13;;;14.18;;
23394;SDS011;11870;53.084;18.206;2023-02-24T05:10:55;40.25;;;14.68;;
23394;SDS011;11870;53.084;18.206;2023-02-24T05:13:24;37.42;;;15.15;;
23394;SDS011;11870;53.084;18.206;2023-02-24T05:16:02;34.30;;;13.73;;
23394;SDS011;11870;53.084;18.206;2023-02-24T05:18:32;44.08;;;15.07;;
23394;SDS011;11870;53.084;18.206;2023-02-24T05:21:06;37.22;;;14.38;;
23394;SDS011;11870;53.084;18.206;2023-02-24T05:23:55;44.22;;;14.77;;
23394;SDS011;11870;53.084;18.206;2023-02-24T05:26:31;45.25;;;15.68;;
23394;SDS011;11870;53.084;18.206;2023-02-24T05:29:00;37.90;;;14.57;;
23394;SDS011;11870;53.084;18.206;2023-02-24T05:31:28;39.17;;;14.68;;
23394;SDS011;11870;53.084;18.206;2023-02-24T05:33:56;38.75;;;14.07;;
23394;SDS011;11870;53.084;18.206;2023-02-24T05:36:25;40.03;;;14.48;;
23394;SDS011;11870;53.084;18.206;2023-02-24T05:38:54;38.22;;;15.32;;
23394;SDS011;11870;53.084;18.206;2023-02-24T05:41:34;37.72;;;14.90;;
23394;SDS011;11870;53.084;18.206;2023-02-24T05:44:04;39.90;;;14.60;;
23394;SDS011;11870;53.084;18.206;2023-02-24T05:46:34;43.53;;;14.95;;
23394;SDS011;11870;53.084;18.206;2023-02-24T05:49:04;44.20;;;15.93;;
23394;SDS011;11870;53.084;18.206;2023-02-24T05:51:38;39.42;;;14.93;;
23394;SDS011;11870;53.084;18.206;2023-02-24T05:54:18;38.55;;;14.70;;
23394;SDS011;11870;53.084;18.206;2023-02-24T05:56:47;36.03;;;13.80;;
23394;SDS011;11870;53.084;18.206;2023-02-24T05:59:13;44.45;;;15.43;;
23394;SDS011;11870;53.084;18.206;2023-02-24T06:01:46;47.80;;;14.82;;
23394;SDS011;11870;53.084;18.206;2023-02-24T06:04:14;42.17;;;14.25;;
23394;SDS011;11870;53.084;18.206;2023-02-24T06:07:14;44.58;;;15.65;;
23394;SDS011;11870;53.084;18.206;2023-02-24T06:09:46;39.45;;;14.65;;
23394;SDS011;11870;53.084;18.206;2023-02-24T06:12:22;38.30;;;14.40;;
23394;SDS011;11870;53.084;18.206;2023-02-24T06:14:51;38.30;;;14.43;;
23394;SDS011;11870;53.084;18.206;2023-02-24T06:17:19;37.25;;;14.57;;
23394;SDS011;11870;53.084;18.206;2023-02-24T06:19:45;38.70;;;14.20;;
23394;SDS011;11870;53.084;18.206;2023-02-24T06:22:16;38.60;;;14.15;;
23394;SDS011;11870;53.084;18.206;2023-02-24T06:24:43;42.45;;;15.55;;
23394;SDS011;11870;53.084;18.206;2023-02-24T06:27:11;37.20;;;15.27;;
23394;SDS011;11870;53.084;18.206;2023-02-24T06:29:43;45.30;;;16.88;;
23394;SDS011;11870;53.084;18.206;2023-02-24T06:32:17;41.70;;;15.43;;
23394;SDS011;11870;53.084;18.206;2023-02-24T06:34:45;36.55;;;14.05;;
23394;SDS011;11870;53.084;18.206;2023-02-24T06:37:12;41.15;;;14.75;;
23394;SDS011;11870;53.084;18.206;2023-02-24T06:39:39;40.42;;;14.35;;
23394;SDS011;11870;53.084;18.206;2023-02-24T06:42:05;40.25;;;13.93;;
23394;SDS011;11870;53.084;18.206;2023-02-24T06:44:36;41.95;;;14.55;;
23394;SDS011;11870;53.084;18.206;2023-02-24T06:47:05;36.55;;;13.90;;
23394;SDS011;11870;53.084;18.206;2023-02-24T06:49:32;32.40;;;12.10;;
23394;SDS011;11870;53.084;18.206;2023-02-24T06:51:58;28.80;;;10.52;;
23394;SDS011;11870;53.084;18.206;2023-02-24T06:54:25;19.52;;;7.25;;
23394;SDS011;11870;53.084;18.206;2023-02-24T06:56:55;14.65;;;6.40;;
23394;SDS011;11870;53.084;18.206;2023-02-24T06:59:23;14.35;;;4.90;;
23394;SDS011;11870;53.084;18.206;2023-02-24T07:01:53;10.80;;;4.38;;
23394;SDS011;11870;53.084;18.206;2023-02-24T07:04:20;10.52;;;4.07;;
23394;SDS011;11870;53.084;18.206;2023-02-24T07:06:50;10.45;;;4.20;;
23394;SDS011;11870;53.084;18.206;2023-02-24T07:09:19;7.63;;;3.83;;
23394;SDS011;11870;53.084;18.206;2023-02-24T07:11:50;14.20;;;4.40;;
23394;SDS011;11870;53.084;18.206;2023-02-24T07:14:32;9.02;;;4.55;;
23394;SDS011;11870;53.084;18.206;2023-02-24T07:17:01;11.13;;;4.53;;
23394;SDS011;11870;53.084;18.206;2023-02-24T07:19:30;11.65;;;5.00;;
23394;SDS011;11870;53.084;18.206;2023-02-24T07:21:57;11.90;;;5.25;;
23394;SDS011;11870;53.084;18.206;2023-02-24T07:24:25;10.27;;;5.05;;
23394;SDS011;11870;53.084;18.206;2023-02-24T07:27:01;13.52;;;5.70;;
23394;SDS011;11870;53.084;18.206;2023-02-24T07:29:30;9.07;;;5.20;;
23394;SDS011;11870;53.084;18.206;2023-02-24T07:31:59;10.55;;;4.95;;
23394;SDS011;11870;53.084;18.206;2023-02-24T07:34:27;12.10;;;5.47;;
23394;SDS011;11870;53.084;18.206;2023-02-24T07:36:54;10.40;;;4.95;;
23394;SDS011;11870;53.084;18.206;2023-02-24T07:39:22;9.88;;;4.25;;
23394;SDS011;11870;53.084;18.206;2023-02-24T07:41:50;8.43;;;4.72;;
23394;SDS011;11870;53.084;18.206;2023-02-24T07:44:17;10.40;;;4.78;;
23394;SDS011;11870;53.084;18.206;2023-02-24T07:46:46;9.15;;;4.20;;
23394;SDS011;11870;53.084;18.206;2023-02-24T07:49:14;12.30;;;6.18;;
23394;SDS011;11870;53.084;18.206;2023-02-24T07:51:44;9.40;;;4.50;;
23394;SDS011;11870;53.084;18.206;2023-02-24T07:54:17;9.82;;;3.95;;
23394;SDS011;11870;53.084;18.206;2023-02-24T07:56:45;5.40;;;3.05;;
23394;SDS011;11870;53.084;18.206;2023-02-24T07:59:20;7.90;;;3.05;;
23394;SDS011;11870;53.084;18.206;2023-02-24T08:01:47;6.25;;;3.15;;
23394;SDS011;11870;53.084;18.206;2023-02-24T08:04:20;8.48;;;3.50;;
23394;SDS011;11870;53.084;18.206;2023-02-24T08:06:54;12.30;;;3.80;;
23394;SDS011;11870;53.084;18.206;2023-02-24T08:09:23;8.82;;;3.20;;
23394;SDS011;11870;53.084;18.206;2023-02-24T08:12:12;16.58;;;4.00;;
23394;SDS011;11870;53.084;18.206;2023-02-24T08:14:46;7.95;;;4.00;;
23394;SDS011;11870;53.084;18.206;2023-02-24T08:17:17;9.35;;;3.45;;
23394;SDS011;11870;53.084;18.206;2023-02-24T08:19:49;8.50;;;3.08;;
23394;SDS011;11870;53.084;18.206;2023-02-24T08:22:32;12.88;;;3.97;;
23394;SDS011;11870;53.084;18.206;2023-02-24T08:25:01;14.73;;;5.40;;
23394;SDS011;11870;53.084;18.206;2023-02-24T08:27:32;16.42;;;4.82;;
23394;SDS011;11870;53.084;18.206;2023-02-24T08:30:03;12.35;;;4.78;;
23394;SDS011;11870;53.084;18.206;2023-02-24T08:35:02;11.90;;;3.80;;
23394;SDS011;11870;53.084;18.206;2023-02-24T08:37:31;12.52;;;4.20;;
23394;SDS011;11870;53.084;18.206;2023-02-24T08:40:05;10.63;;;4.35;;
23394;SDS011;11870;53.084;18.206;2023-02-24T08:42:33;10.27;;;4.13;;
23394;SDS011;11870;53.084;18.206;2023-02-24T08:45:00;13.93;;;4.07;;
23394;SDS011;11870;53.084;18.206;2023-02-24T08:47:27;12.80;;;4.13;;
23394;SDS011;11870;53.084;18.206;2023-02-24T08:49:58;11.32;;;3.83;;
23394;SDS011;11870;53.084;18.206;2023-02-24T08:52:31;10.38;;;3.78;;
23394;SDS011;11870;53.084;18.206;2023-02-24T08:54:59;14.25;;;4.78;;
23394;SDS011;11870;53.084;18.206;2023-02-24T08:57:26;11.35;;;3.88;;
23394;SDS011;11870;53.084;18.206;2023-02-24T08:59:52;12.75;;;3.95;;
23394;SDS011;11870;53.084;18.206;2023-02-24T09:02:31;12.13;;;3.63;;
23394;SDS011;11870;53.084;18.206;2023-02-24T09:05:04;7.78;;;3.30;;
23394;SDS011;11870;53.084;18.206;2023-02-24T09:07:38;8.55;;;3.00;;
23394;SDS011;11870;53.084;18.206;2023-02-24T09:10:15;8.55;;;3.40;;
23394;SDS011;11870;53.084;18.206;2023-02-24T09:12:42;11.82;;;3.13;;
23394;SDS011;11870;53.084;18.206;2023-02-24T09:15:10;9.05;;;2.70;;
23394;SDS011;11870;53.084;18.206;2023-02-24T09:17:40;7.10;;;2.88;;
23394;SDS011;11870;53.084;18.206;2023-02-24T09:20:11;12.95;;;4.22;;
23394;SDS011;11870;53.084;18.206;2023-02-24T09:23:06;8.38;;;3.78;;
23394;SDS011;11870;53.084;18.206;2023-02-24T09:25:37;14.00;;;3.28;;
23394;SDS011;11870;53.084;18.206;2023-02-24T09:28:13;7.85;;;3.10;;
23394;SDS011;11870;53.084;18.206;2023-02-24T09:30:43;6.40;;;2.95;;
23394;SDS011;11870;53.084;18.206;2023-02-24T09:35:58;6.97;;;2.85;;
23394;SDS011;11870;53.084;18.206;2023-02-24T09:38:42;5.75;;;3.00;;
23394;SDS011;11870;53.084;18.206;2023-02-24T09:41:32;8.20;;;2.80;;
23394;SDS011;11870;53.084;18.206;2023-02-24T09:44:31;8.82;;;3.28;;
23394;SDS011;11870;53.084;18.206;2023-02-24T09:49:56;8.65;;;2.92;;
23394;SDS011;11870;53.084;18.206;2023-02-24T09:52:26;8.88;;;3.90;;
23394;SDS011;11870;53.084;18.206;2023-02-24T09:55:34;8.60;;;3.58;;
23394;SDS011;11870;53.084;18.206;2023-02-24T09:58:17;14.38;;;3.67;;
23394;SDS011;11870;53.084;18.206;2023-02-24T10:03:53;15.10;;;5.30;;
23394;SDS011;11870;53.084;18.206;2023-02-24T10:06:38;21.70;;;5.78;;
23394;SDS011;11870;53.084;18.206;2023-02-24T10:14:56;9.25;;;3.13;;
23394;SDS011;11870;53.084;18.206;2023-02-24T10:17:47;14.35;;;4.55;;
23394;SDS011;11870;53.084;18.206;2023-02-24T10:20:25;18.05;;;6.45;;
23394;SDS011;11870;53.084;18.206;2023-02-24T10:23:13;14.77;;;5.25;;
23394;SDS011;11870;53.084;18.206;2023-02-24T10:25:54;8.52;;;3.20;;
23394;SDS011;11870;53.084;18.206;2023-02-24T10:28:33;14.38;;;4.50;;
23394;SDS011;11870;53.084;18.206;2023-02-24T10:34:01;19.77;;;7.13;;
23394;SDS011;11870;53.084;18.206;2023-02-24T10:36:32;11.50;;;4.07;;
23394;SDS011;11870;53.084;18.206;2023-02-24T10:44:49;10.23;;;3.40;;
23394;SDS011;11870;53.084;18.206;2023-02-24T10:47:25;6.80;;;2.75;;
23394;SDS011;11870;53.084;18.206;2023-02-24T10:50:00;5.43;;;2.13;;
23394;SDS011;11870;53.084;18.206;2023-02-24T10:55:26;8.43;;;2.30;;
23394;SDS011;11870;53.084;18.206;2023-02-24T11:01:25;7.78;;;2.50;;
23394;SDS011;11870;53.084;18.206;2023-02-24T11:04:09;7.50;;;2.22;;
23394;SDS011;11870;53.084;18.206;2023-02-24T11:07:04;12.90;;;2.28;;
23394;SDS011;11870;53.084;18.206;2023-02-24T11:09:36;4.65;;;1.98;;
23394;SDS011;11870;53.084;18.206;2023-02-24T11:12:25;4.47;;;2.00;;
23394;SDS011;11870;53.084;18.206;2023-02-24T11:15:20;6.15;;;2.17;;
23394;SDS011;11870;53.084;18.206;2023-02-24T11:18:13;4.85;;;2.03;;
23394;SDS011;11870;53.084;18.206;2023-02-24T11:20:53;6.45;;;2.50;;
23394;SDS011;11870;53.084;18.206;2023-02-24T11:23:33;6.07;;;1.98;;
23394;SDS011;11870;53.084;18.206;2023-02-24T11:26:17;5.28;;;2.10;;
23394;SDS011;11870;53.084;18.206;2023-02-24T11:31:33;7.68;;;2.30;;
23394;SDS011;11870;53.084;18.206;2023-02-24T11:34:24;4.97;;;1.83;;
23394;SDS011;11870;53.084;18.206;2023-02-24T11:37:14;5.22;;;2.10;;
23394;SDS011;11870;53.084;18.206;2023-02-24T11:39:58;5.80;;;2.50;;
23394;SDS011;11870;53.084;18.206;2023-02-24T11:42:52;5.57;;;1.85;;
23394;SDS011;11870;53.084;18.206;2023-02-24T11:47:58;3.25;;;2.10;;
23394;SDS011;11870;53.084;18.206;2023-02-24T11:50:30;5.22;;;2.33;;
23394;SDS011;11870;53.084;18.206;2023-02-24T11:53:12;9.18;;;2.97;;
23394;SDS011;11870;53.084;18.206;2023-02-24T11:55:50;6.82;;;2.50;;
23394;SDS011;11870;53.084;18.206;2023-02-24T11:58:25;9.25;;;3.22;;
23394;SDS011;11870;53.084;18.206;2023-02-24T12:01:20;8.80;;;3.30;;
23394;SDS011;11870;53.084;18.206;2023-02-24T12:07:07;8.43;;;3.50;;
23394;SDS011;11870;53.084;18.206;2023-02-24T12:09:50;7.80;;;2.80;;
23394;SDS011;11870;53.084;18.206;2023-02-24T12:12:22;8.63;;;3.30;;
23394;SDS011;11870;53.084;18.206;2023-02-24T12:14:59;8.18;;;3.10;;
23394;SDS011;11870;53.084;18.206;2023-02-24T12:18:01;10.23;;;3.47;;
23394;SDS011;11870;53.084;18.206;2023-02-24T12:20:45;8.02;;;2.88;;
23394;SDS011;11870;53.084;18.206;2023-02-24T12:23:23;9.27;;;3.25;;
23394;SDS011;11870;53.084;18.206;2023-02-24T12:26:02;8.60;;;3.15;;
23394;SDS011;11870;53.084;18.206;2023-02-24T12:31:51;10.00;;;2.90;;
23394;SDS011;11870;53.084;18.206;2023-02-24T12:34:39;7.97;;;3.15;;
23394;SDS011;11870;53.084;18.206;2023-02-24T12:45:09;7.85;;;2.40;;
23394;SDS011;11870;53.084;18.206;2023-02-24T12:50:23;9.73;;;2.60;;
23394;SDS011;11870;53.084;18.206;2023-02-24T12:58:17;7.97;;;2.58;;
23394;SDS011;11870;53.084;18.206;2023-02-24T13:06:59;7.30;;;2.78;;
23394;SDS011;11870;53.084;18.206;2023-02-24T13:09:47;10.77;;;2.92;;
23394;SDS011;11870;53.084;18.206;2023-02-24T13:14:48;6.28;;;2.10;;
23394;SDS011;11870;53.084;18.206;2023-02-24T13:17:16;5.03;;;2.50;;
23394;SDS011;11870;53.084;18.206;2023-02-24T13:19:45;8.82;;;2.53;;
23394;SDS011;11870;53.084;18.206;2023-02-24T13:24:39;6.55;;;1.90;;
23394;SDS011;11870;53.084;18.206;2023-02-24T13:27:19;8.90;;;2.35;;
23394;SDS011;11870;53.084;18.206;2023-02-24T13:29:59;8.82;;;2.60;;
23394;SDS011;11870;53.084;18.206;2023-02-24T13:34:57;9.82;;;2.40;;
23394;SDS011;11870;53.084;18.206;2023-02-24T13:37:38;6.43;;;2.63;;
23394;SDS011;11870;53.084;18.206;2023-02-24T13:40:12;6.25;;;1.95;;
23394;SDS011;11870;53.084;18.206;2023-02-24T13:45:22;5.93;;;2.08;;
23394;SDS011;11870;53.084;18.206;2023-02-24T13:59:57;3.95;;;1.70;;
23394;SDS011;11870;53.084;18.206;2023-02-24T14:02:46;7.13;;;2.38;;
23394;SDS011;11870;53.084;18.206;2023-02-24T14:07:51;7.38;;;2.38;;
23394;SDS011;11870;53.084;18.206;2023-02-24T14:10:19;8.70;;;1.90;;
23394;SDS011;11870;53.084;18.206;2023-02-24T14:12:49;8.65;;;2.22;;
23394;SDS011;11870;53.084;18.206;2023-02-24T14:15:26;6.38;;;1.90;;
23394;SDS011;11870;53.084;18.206;2023-02-24T14:20:24;3.83;;;1.75;;
23394;SDS011;11870;53.084;18.206;2023-02-24T14:22:52;3.70;;;1.70;;
23394;SDS011;11870;53.084;18.206;2023-02-24T14:25:23;6.63;;;1.92;;
23394;SDS011;11870;53.084;18.206;2023-02-24T14:28:00;5.20;;;1.70;;
23394;SDS011;11870;53.084;18.206;2023-02-24T14:30:28;4.40;;;1.70;;
23394;SDS011;11870;53.084;18.206;2023-02-24T14:32:56;4.57;;;1.80;;
23394;SDS011;11870;53.084;18.206;2023-02-24T14:38:00;4.72;;;1.95;;
23394;SDS011;11870;53.084;18.206;2023-02-24T14:40:26;5.60;;;2.13;;
23394;SDS011;11870;53.084;18.206;2023-02-24T14:42:53;3.63;;;1.63;;
23394;SDS011;11870;53.084;18.206;2023-02-24T14:45:25;7.50;;;1.88;;
23394;SDS011;11870;53.084;18.206;2023-02-24T14:47:53;7.50;;;2.33;;
23394;SDS011;11870;53.084;18.206;2023-02-24T14:50:25;6.78;;;2.00;;
23394;SDS011;11870;53.084;18.206;2023-02-24T14:52:57;7.22;;;2.10;;
23394;SDS011;11870;53.084;18.206;2023-02-24T14:55:25;6.97;;;2.00;;
23394;SDS011;11870;53.084;18.206;2023-02-24T14:58:12;3.60;;;1.65;;
23394;SDS011;11870;53.084;18.206;2023-02-24T15:05:57;5.43;;;1.90;;
23394;SDS011;11870;53.084;18.206;2023-02-24T15:08:36;4.85;;;2.20;;
23394;SDS011;11870;53.084;18.206;2023-02-24T15:13:41;5.50;;;2.05;;
23394;SDS011;11870;53.084;18.206;2023-02-24T15:18:53;3.97;;;1.98;;
23394;SDS011;11870;53.084;18.206;2023-02-24T15:21:31;7.68;;;1.95;;
23394;SDS011;11870;53.084;18.206;2023-02-24T15:26:26;4.22;;;2.13;;
23394;SDS011;11870;53.084;18.206;2023-02-24T15:28:56;7.22;;;2.38;;
23394;SDS011;11870;53.084;18.206;2023-02-24T15:31:24;8.35;;;2.55;;
23394;SDS011;11870;53.084;18.206;2023-02-24T15:33:56;4.30;;;1.95;;
23394;SDS011;11870;53.084;18.206;2023-02-24T15:36:26;6.18;;;2.25;;
23394;SDS011;11870;53.084;18.206;2023-02-24T15:38:59;9.75;;;2.60;;
23394;SDS011;11870;53.084;18.206;2023-02-24T15:41:46;3.97;;;2.00;;
23394;SDS011;11870;53.084;18.206;2023-02-24T15:44:26;7.18;;;2.53;;
23394;SDS011;11870;53.084;18.206;2023-02-24T15:46:54;7.35;;;2.47;;
23394;SDS011;11870;53.084;18.206;2023-02-24T15:49:22;8.95;;;2.55;;
23394;SDS011;11870;53.084;18.206;2023-02-24T15:51:49;4.72;;;2.60;;
23394;SDS011;11870;53.084;18.206;2023-02-24T15:54:18;5.00;;;2.20;;
23394;SDS011;11870;53.084;18.206;2023-02-24T15:56:52;4.13;;;2.13;;
23394;SDS011;11870;53.084;18.206;2023-02-24T15:59:18;6.38;;;2.17;;
23394;SDS011;11870;53.084;18.206;2023-02-24T16:01:48;10.60;;;2.55;;
23394;SDS011;11870;53.084;18.206;2023-02-24T16:04:16;9.40;;;3.03;;
23394;SDS011;11870;53.084;18.206;2023-02-24T16:06:43;9.10;;;2.65;;
23394;SDS011;11870;53.084;18.206;2023-02-24T16:09:20;6.15;;;2.38;;
23394;SDS011;11870;53.084;18.206;2023-02-24T16:11:56;5.72;;;2.33;;
23394;SDS011;11870;53.084;18.206;2023-02-24T16:14:24;7.65;;;2.40;;
23394;SDS011;11870;53.084;18.206;2023-02-24T16:16:50;8.02;;;2.28;;
23394;SDS011;11870;53.084;18.206;2023-02-24T16:19:17;13.25;;;2.75;;
23394;SDS011;11870;53.084;18.206;2023-02-24T16:21:43;8.48;;;2.47;;
23394;SDS011;11870;53.084;18.206;2023-02-24T16:24:10;3.45;;;1.83;;
23394;SDS011;11870;53.084;18.206;2023-02-24T16:26:37;4.45;;;2.20;;
23394;SDS011;11870;53.084;18.206;2023-02-24T16:29:04;5.22;;;2.30;;
23394;SDS011;11870;53.084;18.206;2023-02-24T16:31:36;10.80;;;2.38;;
23394;SDS011;11870;53.084;18.206;2023-02-24T16:34:03;4.68;;;2.25;;
23394;SDS011;11870;53.084;18.206;2023-02-24T16:36:30;6.30;;;2.50;;
23394;SDS011;11870;53.084;18.206;2023-02-24T16:38:56;12.63;;;2.67;;
23394;SDS011;11870;53.084;18.206;2023-02-24T16:41:23;10.68;;;2.85;;
23394;SDS011;11870;53.084;18.206;2023-02-24T16:43:49;6.45;;;2.67;;
23394;SDS011;11870;53.084;18.206;2023-02-24T16:46:17;7.63;;;3.33;;
23394;SDS011;11870;53.084;18.206;2023-02-24T16:48:45;9.18;;;3.33;;
23394;SDS011;11870;53.084;18.206;2023-02-24T16:51:13;11.00;;;3.38;;
23394;SDS011;11870;53.084;18.206;2023-02-24T16:53:39;8.93;;;3.45;;
23394;SDS011;11870;53.084;18.206;2023-02-24T16:56:06;14.70;;;3.85;;
23394;SDS011;11870;53.084;18.206;2023-02-24T16:58:32;12.18;;;3.47;;
23394;SDS011;11870;53.084;18.206;2023-02-24T17:00:59;10.15;;;3.45;;
23394;SDS011;11870;53.084;18.206;2023-02-24T17:03:37;10.63;;;4.10;;
23394;SDS011;11870;53.084;18.206;2023-02-24T17:06:09;9.73;;;4.28;;
23394;SDS011;11870;53.084;18.206;2023-02-24T17:08:36;11.38;;;4.20;;
23394;SDS011;11870;53.084;18.206;2023-02-24T17:11:02;8.48;;;3.63;;
23394;SDS011;11870;53.084;18.206;2023-02-24T17:13:28;12.98;;;5.15;;
23394;SDS011;11870;53.084;18.206;2023-02-24T17:15:55;17.05;;;5.78;;
23394;SDS011;11870;53.084;18.206;2023-02-24T17:18:24;13.15;;;5.03;;
23394;SDS011;11870;53.084;18.206;2023-02-24T17:20:51;10.90;;;4.45;;
23394;SDS011;11870;53.084;18.206;2023-02-24T17:23:18;17.88;;;5.57;;
23394;SDS011;11870;53.084;18.206;2023-02-24T17:25:44;15.63;;;5.00;;